sensor_id;sensor_type;location;lat;lon;timestamp;P1;durP1;ratioP1;P2;durP2;ratioP2
33836;SDS011;20140;49.356;8.812;2024-02-15T00:01:51;5.15;;;3.90;;
33836;SDS011;20140;49.356;8.812;2024-02-15T00:04:16;2.93;;;2.67;;
33836;SDS011;20140;49.356;8.812;2024-02-15T00:06:42;3.55;;;3.25;;
33836;SDS011;20140;49.356;8.812;2024-02-15T00:09:08;5.63;;;3.33;;
33836;SDS011;20140;49.356;8.812;2024-02-15T00:11:34;5.40;;;4.50;;
33836;SDS011;20140;49.356;8.812;2024-02-15T00:13:59;4.70;;;3.83;;
33836;SDS011;20140;49.356;8.812;2024-02-15T00:16:25;4.13;;;3.20;;
33836;SDS011;20140;49.356;8.812;2024-02-15T00:18:52;8.75;;;3.95;;
33836;SDS011;20140;49.356;8.812;2024-02-15T00:21:20;3.40;;;2.80;;
33836;SDS011;20140;49.356;8.812;2024-02-15T00:23:46;4.60;;;3.65;;
33836;SDS011;20140;49.356;8.812;2024-02-15T00:26:12;4.80;;;3.60;;
33836;SDS011;20140;49.356;8.812;2024-02-15T00:28:37;4.90;;;3.50;;
33836;SDS011;20140;49.356;8.812;2024-02-15T00:31:03;6.68;;;4.07;;
33836;SDS011;20140;49.356;8.812;2024-02-15T00:33:28;5.23;;;3.93;;
33836;SDS011;20140;49.356;8.812;2024-02-15T00:35:54;4.83;;;3.57;;
33836;SDS011;20140;49.356;8.812;2024-02-15T00:38:19;4.70;;;4.00;;
33836;SDS011;20140;49.356;8.812;2024-02-15T00:40:45;5.00;;;3.67;;
33836;SDS011;20140;49.356;8.812;2024-02-15T00:43:10;4.17;;;3.20;;
33836;SDS011;20140;49.356;8.812;2024-02-15T00:45:36;3.20;;;2.77;;
33836;SDS011;20140;49.356;8.812;2024-02-15T00:48:01;4.72;;;3.28;;
33836;SDS011;20140;49.356;8.812;2024-02-15T00:50:27;3.25;;;2.70;;
33836;SDS011;20140;49.356;8.812;2024-02-15T00:52:53;3.47;;;3.17;;
33836;SDS011;20140;49.356;8.812;2024-02-15T00:55:18;5.20;;;2.80;;
33836;SDS011;20140;49.356;8.812;2024-02-15T00:57:45;4.22;;;3.22;;
33836;SDS011;20140;49.356;8.812;2024-02-15T01:00:10;4.28;;;3.45;;
33836;SDS011;20140;49.356;8.812;2024-02-15T01:02:38;4.35;;;3.22;;
33836;SDS011;20140;49.356;8.812;2024-02-15T01:05:03;3.70;;;3.15;;
33836;SDS011;20140;49.356;8.812;2024-02-15T01:07:29;4.38;;;3.47;;
33836;SDS011;20140;49.356;8.812;2024-02-15T01:09:55;4.18;;;2.75;;
33836;SDS011;20140;49.356;8.812;2024-02-15T01:12:20;4.93;;;3.50;;
33836;SDS011;20140;49.356;8.812;2024-02-15T01:14:46;4.18;;;3.00;;
33836;SDS011;20140;49.356;8.812;2024-02-15T01:17:12;2.92;;;2.47;;
33836;SDS011;20140;49.356;8.812;2024-02-15T01:19:38;2.40;;;2.20;;
33836;SDS011;20140;49.356;8.812;2024-02-15T01:22:04;2.77;;;2.40;;
33836;SDS011;20140;49.356;8.812;2024-02-15T01:24:31;2.47;;;2.28;;
33836;SDS011;20140;49.356;8.812;2024-02-15T01:26:57;2.75;;;2.20;;
33836;SDS011;20140;49.356;8.812;2024-02-15T01:29:23;3.47;;;2.58;;
33836;SDS011;20140;49.356;8.812;2024-02-15T01:31:49;3.40;;;2.80;;
33836;SDS011;20140;49.356;8.812;2024-02-15T01:34:15;3.00;;;2.33;;
33836;SDS011;20140;49.356;8.812;2024-02-15T01:36:40;3.17;;;2.85;;
33836;SDS011;20140;49.356;8.812;2024-02-15T01:39:05;3.70;;;2.63;;
33836;SDS011;20140;49.356;8.812;2024-02-15T01:41:31;2.50;;;2.30;;
33836;SDS011;20140;49.356;8.812;2024-02-15T01:43:57;2.93;;;2.40;;
33836;SDS011;20140;49.356;8.812;2024-02-15T01:46:22;2.13;;;1.83;;
33836;SDS011;20140;49.356;8.812;2024-02-15T01:48:50;2.95;;;2.03;;
33836;SDS011;20140;49.356;8.812;2024-02-15T01:51:16;3.65;;;2.88;;
33836;SDS011;20140;49.356;8.812;2024-02-15T01:53:42;3.20;;;2.53;;
33836;SDS011;20140;49.356;8.812;2024-02-15T01:56:09;3.20;;;2.72;;
33836;SDS011;20140;49.356;8.812;2024-02-15T01:58:41;3.20;;;2.40;;
33836;SDS011;20140;49.356;8.812;2024-02-15T02:01:10;2.80;;;2.60;;
33836;SDS011;20140;49.356;8.812;2024-02-15T02:03:36;2.60;;;2.27;;
33836;SDS011;20140;49.356;8.812;2024-02-15T02:06:02;4.10;;;2.80;;
33836;SDS011;20140;49.356;8.812;2024-02-15T02:08:28;3.67;;;2.67;;
33836;SDS011;20140;49.356;8.812;2024-02-15T02:10:53;2.93;;;2.30;;
33836;SDS011;20140;49.356;8.812;2024-02-15T02:13:19;4.63;;;2.37;;
33836;SDS011;20140;49.356;8.812;2024-02-15T02:15:45;3.37;;;2.70;;
33836;SDS011;20140;49.356;8.812;2024-02-15T02:18:10;2.93;;;2.40;;
33836;SDS011;20140;49.356;8.812;2024-02-15T02:20:36;2.92;;;2.28;;
33836;SDS011;20140;49.356;8.812;2024-02-15T02:23:03;3.23;;;2.63;;
33836;SDS011;20140;49.356;8.812;2024-02-15T02:25:38;2.78;;;2.13;;
33836;SDS011;20140;49.356;8.812;2024-02-15T02:28:04;3.30;;;2.70;;
33836;SDS011;20140;49.356;8.812;2024-02-15T02:30:31;3.63;;;2.47;;
33836;SDS011;20140;49.356;8.812;2024-02-15T02:32:57;3.40;;;2.80;;
33836;SDS011;20140;49.356;8.812;2024-02-15T02:35:23;4.63;;;2.67;;
33836;SDS011;20140;49.356;8.812;2024-02-15T02:37:50;3.22;;;2.38;;
33836;SDS011;20140;49.356;8.812;2024-02-15T02:40:18;3.30;;;2.75;;
33836;SDS011;20140;49.356;8.812;2024-02-15T02:42:53;4.72;;;3.53;;
33836;SDS011;20140;49.356;8.812;2024-02-15T02:45:25;6.07;;;3.13;;
33836;SDS011;20140;49.356;8.812;2024-02-15T02:47:51;5.95;;;4.15;;
33836;SDS011;20140;49.356;8.812;2024-02-15T02:50:17;4.45;;;3.20;;
33836;SDS011;20140;49.356;8.812;2024-02-15T02:52:44;4.50;;;4.00;;
33836;SDS011;20140;49.356;8.812;2024-02-15T02:55:09;4.93;;;3.88;;
33836;SDS011;20140;49.356;8.812;2024-02-15T02:57:36;4.77;;;3.40;;
33836;SDS011;20140;49.356;8.812;2024-02-15T03:00:03;7.80;;;3.58;;
33836;SDS011;20140;49.356;8.812;2024-02-15T03:02:33;6.40;;;3.85;;
33836;SDS011;20140;49.356;8.812;2024-02-15T03:05:01;4.07;;;3.25;;
33836;SDS011;20140;49.356;8.812;2024-02-15T03:07:34;4.70;;;3.87;;
33836;SDS011;20140;49.356;8.812;2024-02-15T03:10:00;4.18;;;3.50;;
33836;SDS011;20140;49.356;8.812;2024-02-15T03:12:29;4.78;;;3.60;;
33836;SDS011;20140;49.356;8.812;2024-02-15T03:14:55;4.60;;;3.05;;
33836;SDS011;20140;49.356;8.812;2024-02-15T03:17:23;6.18;;;3.83;;
33836;SDS011;20140;49.356;8.812;2024-02-15T03:19:48;4.40;;;3.55;;
33836;SDS011;20140;49.356;8.812;2024-02-15T03:22:14;4.60;;;3.30;;
33836;SDS011;20140;49.356;8.812;2024-02-15T03:24:40;4.73;;;4.00;;
33836;SDS011;20140;49.356;8.812;2024-02-15T03:27:05;4.23;;;3.47;;
33836;SDS011;20140;49.356;8.812;2024-02-15T03:29:31;5.67;;;4.73;;
33836;SDS011;20140;49.356;8.812;2024-02-15T03:31:59;9.38;;;4.32;;
33836;SDS011;20140;49.356;8.812;2024-02-15T03:34:24;10.20;;;6.13;;
33836;SDS011;20140;49.356;8.812;2024-02-15T03:36:50;8.63;;;5.90;;
33836;SDS011;20140;49.356;8.812;2024-02-15T03:39:19;8.73;;;5.47;;
33836;SDS011;20140;49.356;8.812;2024-02-15T03:41:44;6.95;;;5.18;;
33836;SDS011;20140;49.356;8.812;2024-02-15T03:44:13;7.93;;;5.22;;
33836;SDS011;20140;49.356;8.812;2024-02-15T03:46:39;5.68;;;3.88;;
33836;SDS011;20140;49.356;8.812;2024-02-15T03:49:05;8.23;;;4.40;;
33836;SDS011;20140;49.356;8.812;2024-02-15T03:51:32;7.13;;;4.28;;
33836;SDS011;20140;49.356;8.812;2024-02-15T03:53:59;6.28;;;4.63;;
33836;SDS011;20140;49.356;8.812;2024-02-15T03:56:24;5.27;;;4.10;;
33836;SDS011;20140;49.356;8.812;2024-02-15T03:58:50;5.53;;;3.83;;
33836;SDS011;20140;49.356;8.812;2024-02-15T04:01:16;5.63;;;4.28;;
33836;SDS011;20140;49.356;8.812;2024-02-15T04:03:41;6.10;;;4.70;;
33836;SDS011;20140;49.356;8.812;2024-02-15T04:06:07;4.40;;;3.20;;
33836;SDS011;20140;49.356;8.812;2024-02-15T04:08:34;4.68;;;3.30;;
33836;SDS011;20140;49.356;8.812;2024-02-15T04:11:03;5.20;;;4.03;;
33836;SDS011;20140;49.356;8.812;2024-02-15T04:13:30;4.13;;;3.35;;
33836;SDS011;20140;49.356;8.812;2024-02-15T04:15:57;4.07;;;3.60;;
33836;SDS011;20140;49.356;8.812;2024-02-15T04:18:23;5.57;;;4.00;;
33836;SDS011;20140;49.356;8.812;2024-02-15T04:20:48;3.70;;;3.37;;
33836;SDS011;20140;49.356;8.812;2024-02-15T04:23:14;3.40;;;2.97;;
33836;SDS011;20140;49.356;8.812;2024-02-15T04:25:39;5.10;;;3.45;;
33836;SDS011;20140;49.356;8.812;2024-02-15T04:28:05;3.85;;;3.45;;
33836;SDS011;20140;49.356;8.812;2024-02-15T04:30:33;4.65;;;3.67;;
33836;SDS011;20140;49.356;8.812;2024-02-15T04:33:03;3.83;;;2.92;;
33836;SDS011;20140;49.356;8.812;2024-02-15T04:35:30;3.60;;;2.85;;
33836;SDS011;20140;49.356;8.812;2024-02-15T04:37:55;4.07;;;3.17;;
33836;SDS011;20140;49.356;8.812;2024-02-15T04:40:21;5.20;;;3.65;;
33836;SDS011;20140;49.356;8.812;2024-02-15T04:42:46;5.37;;;3.40;;
33836;SDS011;20140;49.356;8.812;2024-02-15T04:45:12;3.13;;;2.83;;
33836;SDS011;20140;49.356;8.812;2024-02-15T04:47:40;5.07;;;4.03;;
33836;SDS011;20140;49.356;8.812;2024-02-15T04:50:10;5.13;;;4.18;;
33836;SDS011;20140;49.356;8.812;2024-02-15T04:52:36;4.30;;;3.85;;
33836;SDS011;20140;49.356;8.812;2024-02-15T04:55:02;4.50;;;3.53;;
33836;SDS011;20140;49.356;8.812;2024-02-15T04:57:30;4.68;;;3.80;;
33836;SDS011;20140;49.356;8.812;2024-02-15T04:59:58;5.40;;;4.90;;
33836;SDS011;20140;49.356;8.812;2024-02-15T05:02:24;4.87;;;4.10;;
33836;SDS011;20140;49.356;8.812;2024-02-15T05:04:50;4.80;;;4.30;;
33836;SDS011;20140;49.356;8.812;2024-02-15T05:07:21;4.45;;;4.05;;
33836;SDS011;20140;49.356;8.812;2024-02-15T05:09:47;6.28;;;4.18;;
33836;SDS011;20140;49.356;8.812;2024-02-15T05:12:21;7.13;;;4.50;;
33836;SDS011;20140;49.356;8.812;2024-02-15T05:14:49;4.83;;;3.70;;
33836;SDS011;20140;49.356;8.812;2024-02-15T05:17:15;6.90;;;4.90;;
33836;SDS011;20140;49.356;8.812;2024-02-15T05:19:41;5.05;;;4.13;;
33836;SDS011;20140;49.356;8.812;2024-02-15T05:22:07;5.63;;;4.53;;
33836;SDS011;20140;49.356;8.812;2024-02-15T05:24:32;5.43;;;4.45;;
33836;SDS011;20140;49.356;8.812;2024-02-15T05:26:59;5.72;;;4.25;;
33836;SDS011;20140;49.356;8.812;2024-02-15T05:29:24;6.77;;;4.33;;
33836;SDS011;20140;49.356;8.812;2024-02-15T05:31:50;7.40;;;4.33;;
33836;SDS011;20140;49.356;8.812;2024-02-15T05:34:16;5.45;;;3.95;;
33836;SDS011;20140;49.356;8.812;2024-02-15T05:36:42;5.30;;;3.95;;
33836;SDS011;20140;49.356;8.812;2024-02-15T05:39:07;4.97;;;4.32;;
33836;SDS011;20140;49.356;8.812;2024-02-15T05:41:36;3.95;;;3.45;;
33836;SDS011;20140;49.356;8.812;2024-02-15T05:44:02;5.57;;;4.37;;
33836;SDS011;20140;49.356;8.812;2024-02-15T05:46:32;5.90;;;4.28;;
33836;SDS011;20140;49.356;8.812;2024-02-15T05:49:02;4.57;;;3.42;;
33836;SDS011;20140;49.356;8.812;2024-02-15T05:51:29;4.68;;;3.80;;
33836;SDS011;20140;49.356;8.812;2024-02-15T05:53:56;7.07;;;4.13;;
33836;SDS011;20140;49.356;8.812;2024-02-15T05:56:24;6.32;;;4.28;;
33836;SDS011;20140;49.356;8.812;2024-02-15T05:58:51;4.40;;;3.80;;
33836;SDS011;20140;49.356;8.812;2024-02-15T06:01:19;6.72;;;5.13;;
33836;SDS011;20140;49.356;8.812;2024-02-15T06:03:45;4.70;;;3.80;;
33836;SDS011;20140;49.356;8.812;2024-02-15T06:06:11;6.32;;;4.07;;
33836;SDS011;20140;49.356;8.812;2024-02-15T06:08:37;4.32;;;3.50;;
33836;SDS011;20140;49.356;8.812;2024-02-15T06:11:03;5.00;;;3.50;;
33836;SDS011;20140;49.356;8.812;2024-02-15T06:13:30;4.80;;;4.00;;
33836;SDS011;20140;49.356;8.812;2024-02-15T06:15:56;6.40;;;4.30;;
33836;SDS011;20140;49.356;8.812;2024-02-15T06:18:26;5.82;;;3.78;;
33836;SDS011;20140;49.356;8.812;2024-02-15T06:20:54;5.18;;;3.72;;
33836;SDS011;20140;49.356;8.812;2024-02-15T06:23:22;5.07;;;4.20;;
33836;SDS011;20140;49.356;8.812;2024-02-15T06:25:50;5.35;;;4.25;;
33836;SDS011;20140;49.356;8.812;2024-02-15T06:28:18;4.70;;;3.72;;
33836;SDS011;20140;49.356;8.812;2024-02-15T06:31:02;5.90;;;4.18;;
33836;SDS011;20140;49.356;8.812;2024-02-15T06:33:46;6.68;;;3.95;;
33836;SDS011;20140;49.356;8.812;2024-02-15T06:36:30;4.45;;;3.88;;
33836;SDS011;20140;49.356;8.812;2024-02-15T06:39:14;4.20;;;3.72;;
33836;SDS011;20140;49.356;8.812;2024-02-15T06:41:58;8.23;;;4.25;;
33836;SDS011;20140;49.356;8.812;2024-02-15T06:44:26;5.95;;;4.03;;
33836;SDS011;20140;49.356;8.812;2024-02-15T06:46:51;7.68;;;3.70;;
33836;SDS011;20140;49.356;8.812;2024-02-15T06:49:17;4.82;;;3.38;;
33836;SDS011;20140;49.356;8.812;2024-02-15T06:51:42;6.13;;;3.38;;
33836;SDS011;20140;49.356;8.812;2024-02-15T06:54:08;5.43;;;3.72;;
33836;SDS011;20140;49.356;8.812;2024-02-15T06:56:38;4.97;;;3.92;;
33836;SDS011;20140;49.356;8.812;2024-02-15T06:59:04;5.38;;;4.43;;
33836;SDS011;20140;49.356;8.812;2024-02-15T07:01:30;3.97;;;3.28;;
33836;SDS011;20140;49.356;8.812;2024-02-15T07:03:57;4.22;;;3.60;;
33836;SDS011;20140;49.356;8.812;2024-02-15T07:06:23;4.70;;;3.30;;
33836;SDS011;20140;49.356;8.812;2024-02-15T07:08:48;4.17;;;3.40;;
33836;SDS011;20140;49.356;8.812;2024-02-15T07:11:15;3.83;;;3.23;;
33836;SDS011;20140;49.356;8.812;2024-02-15T07:13:41;7.67;;;4.00;;
33836;SDS011;20140;49.356;8.812;2024-02-15T07:16:07;6.57;;;4.87;;
33836;SDS011;20140;49.356;8.812;2024-02-15T07:18:33;7.32;;;4.45;;
33836;SDS011;20140;49.356;8.812;2024-02-15T07:20:59;5.57;;;3.75;;
33836;SDS011;20140;49.356;8.812;2024-02-15T07:23:26;6.80;;;4.13;;
33836;SDS011;20140;49.356;8.812;2024-02-15T07:25:52;8.40;;;4.68;;
33836;SDS011;20140;49.356;8.812;2024-02-15T07:28:19;7.10;;;5.30;;
33836;SDS011;20140;49.356;8.812;2024-02-15T07:30:45;7.55;;;4.50;;
33836;SDS011;20140;49.356;8.812;2024-02-15T07:33:13;5.97;;;4.78;;
33836;SDS011;20140;49.356;8.812;2024-02-15T07:35:42;7.07;;;5.28;;
33836;SDS011;20140;49.356;8.812;2024-02-15T07:38:08;8.00;;;6.00;;
33836;SDS011;20140;49.356;8.812;2024-02-15T07:40:36;7.38;;;5.90;;
33836;SDS011;20140;49.356;8.812;2024-02-15T07:43:04;6.85;;;5.25;;
33836;SDS011;20140;49.356;8.812;2024-02-15T07:45:31;6.57;;;5.53;;
33836;SDS011;20140;49.356;8.812;2024-02-15T07:48:02;7.90;;;5.55;;
33836;SDS011;20140;49.356;8.812;2024-02-15T07:50:31;7.38;;;5.82;;
33836;SDS011;20140;49.356;8.812;2024-02-15T07:52:57;8.18;;;6.72;;
33836;SDS011;20140;49.356;8.812;2024-02-15T07:55:23;9.88;;;6.53;;
33836;SDS011;20140;49.356;8.812;2024-02-15T07:57:53;6.20;;;5.25;;
33836;SDS011;20140;49.356;8.812;2024-02-15T08:00:19;8.45;;;5.60;;
33836;SDS011;20140;49.356;8.812;2024-02-15T08:02:45;7.93;;;4.97;;
33836;SDS011;20140;49.356;8.812;2024-02-15T08:05:11;10.52;;;6.15;;
33836;SDS011;20140;49.356;8.812;2024-02-15T08:07:40;6.57;;;5.68;;
33836;SDS011;20140;49.356;8.812;2024-02-15T08:10:07;7.40;;;5.40;;
33836;SDS011;20140;49.356;8.812;2024-02-15T08:12:48;7.30;;;6.23;;
33836;SDS011;20140;49.356;8.812;2024-02-15T08:15:17;9.55;;;7.45;;
33836;SDS011;20140;49.356;8.812;2024-02-15T08:17:43;10.45;;;7.93;;
33836;SDS011;20140;49.356;8.812;2024-02-15T08:20:13;8.27;;;6.75;;
33836;SDS011;20140;49.356;8.812;2024-02-15T08:22:39;8.80;;;7.20;;
33836;SDS011;20140;49.356;8.812;2024-02-15T08:25:06;8.38;;;6.80;;
33836;SDS011;20140;49.356;8.812;2024-02-15T08:27:35;8.05;;;6.30;;
33836;SDS011;20140;49.356;8.812;2024-02-15T08:30:05;7.63;;;5.88;;
33836;SDS011;20140;49.356;8.812;2024-02-15T08:32:34;7.10;;;5.80;;
33836;SDS011;20140;49.356;8.812;2024-02-15T08:34:59;6.60;;;5.20;;
33836;SDS011;20140;49.356;8.812;2024-02-15T08:37:25;6.77;;;6.00;;
33836;SDS011;20140;49.356;8.812;2024-02-15T08:39:51;7.40;;;5.43;;
33836;SDS011;20140;49.356;8.812;2024-02-15T08:42:17;6.97;;;5.13;;
33836;SDS011;20140;49.356;8.812;2024-02-15T08:44:47;5.95;;;4.97;;
33836;SDS011;20140;49.356;8.812;2024-02-15T08:47:13;5.35;;;4.50;;
33836;SDS011;20140;49.356;8.812;2024-02-15T08:49:39;6.85;;;5.07;;
33836;SDS011;20140;49.356;8.812;2024-02-15T08:52:05;6.82;;;5.40;;
33836;SDS011;20140;49.356;8.812;2024-02-15T08:54:32;9.65;;;6.78;;
33836;SDS011;20140;49.356;8.812;2024-02-15T08:56:58;9.48;;;7.13;;
33836;SDS011;20140;49.356;8.812;2024-02-15T08:59:24;9.47;;;7.67;;
33836;SDS011;20140;49.356;8.812;2024-02-15T09:01:52;10.17;;;6.80;;
33836;SDS011;20140;49.356;8.812;2024-02-15T09:04:19;6.97;;;5.85;;
33836;SDS011;20140;49.356;8.812;2024-02-15T09:06:46;8.15;;;4.88;;
33836;SDS011;20140;49.356;8.812;2024-02-15T09:09:11;6.45;;;5.05;;
33836;SDS011;20140;49.356;8.812;2024-02-15T09:11:39;6.43;;;4.70;;
33836;SDS011;20140;49.356;8.812;2024-02-15T09:14:04;5.70;;;4.27;;
33836;SDS011;20140;49.356;8.812;2024-02-15T09:16:30;6.93;;;4.95;;
33836;SDS011;20140;49.356;8.812;2024-02-15T09:18:56;5.03;;;4.03;;
33836;SDS011;20140;49.356;8.812;2024-02-15T09:21:25;5.93;;;4.75;;
33836;SDS011;20140;49.356;8.812;2024-02-15T09:23:53;4.07;;;3.40;;
33836;SDS011;20140;49.356;8.812;2024-02-15T09:26:19;4.27;;;3.87;;
33836;SDS011;20140;49.356;8.812;2024-02-15T09:28:44;4.82;;;4.00;;
33836;SDS011;20140;49.356;8.812;2024-02-15T09:31:12;5.47;;;3.28;;
33836;SDS011;20140;49.356;8.812;2024-02-15T09:33:38;3.83;;;3.00;;
33836;SDS011;20140;49.356;8.812;2024-02-15T09:36:04;3.00;;;2.55;;
33836;SDS011;20140;49.356;8.812;2024-02-15T09:38:30;2.58;;;2.30;;
33836;SDS011;20140;49.356;8.812;2024-02-15T09:40:55;3.70;;;1.92;;
33836;SDS011;20140;49.356;8.812;2024-02-15T09:43:21;1.83;;;1.45;;
33836;SDS011;20140;49.356;8.812;2024-02-15T09:45:51;2.72;;;1.65;;
33836;SDS011;20140;49.356;8.812;2024-02-15T09:48:17;4.30;;;1.30;;
33836;SDS011;20140;49.356;8.812;2024-02-15T09:50:43;3.17;;;1.65;;
33836;SDS011;20140;49.356;8.812;2024-02-15T09:53:13;4.35;;;1.40;;
33836;SDS011;20140;49.356;8.812;2024-02-15T09:55:40;1.40;;;1.08;;
33836;SDS011;20140;49.356;8.812;2024-02-15T09:58:06;1.52;;;1.38;;
33836;SDS011;20140;49.356;8.812;2024-02-15T10:00:34;4.68;;;1.27;;
33836;SDS011;20140;49.356;8.812;2024-02-15T10:03:00;2.95;;;1.55;;
33836;SDS011;20140;49.356;8.812;2024-02-15T10:05:27;3.45;;;1.27;;
33836;SDS011;20140;49.356;8.812;2024-02-15T10:07:53;3.67;;;1.50;;
33836;SDS011;20140;49.356;8.812;2024-02-15T10:12:48;3.27;;;1.33;;
33836;SDS011;20140;49.356;8.812;2024-02-15T10:15:27;2.45;;;1.45;;
33836;SDS011;20140;49.356;8.812;2024-02-15T10:17:55;7.57;;;1.70;;
33836;SDS011;20140;49.356;8.812;2024-02-15T10:20:23;2.10;;;1.42;;
33836;SDS011;20140;49.356;8.812;2024-02-15T10:22:51;1.90;;;1.20;;
33836;SDS011;20140;49.356;8.812;2024-02-15T10:25:33;2.53;;;1.13;;
33836;SDS011;20140;49.356;8.812;2024-02-15T10:28:03;1.67;;;1.17;;
33836;SDS011;20140;49.356;8.812;2024-02-15T10:30:32;3.03;;;1.08;;
33836;SDS011;20140;49.356;8.812;2024-02-15T10:33:01;2.75;;;1.10;;
33836;SDS011;20140;49.356;8.812;2024-02-15T10:35:28;3.70;;;1.10;;
33836;SDS011;20140;49.356;8.812;2024-02-15T10:37:54;2.50;;;1.30;;
33836;SDS011;20140;49.356;8.812;2024-02-15T10:40:36;4.15;;;1.08;;
33836;SDS011;20140;49.356;8.812;2024-02-15T10:43:03;1.42;;;0.77;;
33836;SDS011;20140;49.356;8.812;2024-02-15T10:45:30;2.00;;;1.27;;
33836;SDS011;20140;49.356;8.812;2024-02-15T10:47:56;1.45;;;1.25;;
33836;SDS011;20140;49.356;8.812;2024-02-15T10:50:22;1.23;;;0.93;;
33836;SDS011;20140;49.356;8.812;2024-02-15T10:52:54;1.58;;;1.20;;
33836;SDS011;20140;49.356;8.812;2024-02-15T10:55:38;1.53;;;1.10;;
33836;SDS011;20140;49.356;8.812;2024-02-15T10:58:06;1.73;;;0.80;;
33836;SDS011;20140;49.356;8.812;2024-02-15T11:00:32;3.80;;;1.02;;
33836;SDS011;20140;49.356;8.812;2024-02-15T11:03:03;2.13;;;1.15;;
33836;SDS011;20140;49.356;8.812;2024-02-15T11:05:33;1.83;;;1.33;;
33836;SDS011;20140;49.356;8.812;2024-02-15T11:08:00;4.43;;;1.85;;
33836;SDS011;20140;49.356;8.812;2024-02-15T11:10:30;2.37;;;1.07;;
33836;SDS011;20140;49.356;8.812;2024-02-15T11:12:56;2.17;;;1.40;;
33836;SDS011;20140;49.356;8.812;2024-02-15T11:18:02;1.38;;;0.90;;
33836;SDS011;20140;49.356;8.812;2024-02-15T11:22:59;2.67;;;1.08;;
33836;SDS011;20140;49.356;8.812;2024-02-15T11:25:36;1.63;;;0.97;;
33836;SDS011;20140;49.356;8.812;2024-02-15T11:30:50;1.58;;;0.88;;
33836;SDS011;20140;49.356;8.812;2024-02-15T11:38:57;1.08;;;0.82;;
33836;SDS011;20140;49.356;8.812;2024-02-15T11:41:23;2.73;;;0.87;;
33836;SDS011;20140;49.356;8.812;2024-02-15T11:43:49;1.77;;;0.93;;
33836;SDS011;20140;49.356;8.812;2024-02-15T11:46:22;2.50;;;0.70;;
33836;SDS011;20140;49.356;8.812;2024-02-15T11:48:55;1.92;;;1.20;;
33836;SDS011;20140;49.356;8.812;2024-02-15T11:51:25;2.92;;;1.10;;
33836;SDS011;20140;49.356;8.812;2024-02-15T11:54:11;1.40;;;0.70;;
33836;SDS011;20140;49.356;8.812;2024-02-15T11:59:08;1.73;;;0.90;;
33836;SDS011;20140;49.356;8.812;2024-02-15T12:01:37;1.98;;;0.88;;
33836;SDS011;20140;49.356;8.812;2024-02-15T12:04:22;1.98;;;0.70;;
33836;SDS011;20140;49.356;8.812;2024-02-15T12:07:06;1.50;;;0.50;;
33836;SDS011;20140;49.356;8.812;2024-02-15T12:09:50;2.58;;;0.75;;
33836;SDS011;20140;49.356;8.812;2024-02-15T12:12:50;0.80;;;0.65;;
33836;SDS011;20140;49.356;8.812;2024-02-15T12:15:34;4.82;;;0.80;;
33836;SDS011;20140;49.356;8.812;2024-02-15T12:18:19;3.33;;;0.85;;
33836;SDS011;20140;49.356;8.812;2024-02-15T12:21:03;1.05;;;1.00;;
33836;SDS011;20140;49.356;8.812;2024-02-15T12:23:30;2.87;;;0.80;;
33836;SDS011;20140;49.356;8.812;2024-02-15T12:26:01;1.47;;;0.50;;
33836;SDS011;20140;49.356;8.812;2024-02-15T12:28:28;3.75;;;0.60;;
33836;SDS011;20140;49.356;8.812;2024-02-15T12:30:55;1.27;;;1.17;;
33836;SDS011;20140;49.356;8.812;2024-02-15T12:33:23;0.85;;;0.50;;
33836;SDS011;20140;49.356;8.812;2024-02-15T12:35:49;0.77;;;0.50;;
33836;SDS011;20140;49.356;8.812;2024-02-15T12:38:16;0.73;;;0.40;;
33836;SDS011;20140;49.356;8.812;2024-02-15T12:40:41;0.80;;;0.50;;
33836;SDS011;20140;49.356;8.812;2024-02-15T12:43:08;2.25;;;0.50;;
33836;SDS011;20140;49.356;8.812;2024-02-15T12:45:37;1.40;;;0.60;;
33836;SDS011;20140;49.356;8.812;2024-02-15T12:48:06;2.77;;;0.60;;
33836;SDS011;20140;49.356;8.812;2024-02-15T12:50:32;3.15;;;0.70;;
33836;SDS011;20140;49.356;8.812;2024-02-15T12:53:01;2.07;;;0.90;;
33836;SDS011;20140;49.356;8.812;2024-02-15T12:55:34;1.85;;;0.63;;
33836;SDS011;20140;49.356;8.812;2024-02-15T12:58:01;1.13;;;0.60;;
33836;SDS011;20140;49.356;8.812;2024-02-15T13:00:29;2.28;;;0.40;;
33836;SDS011;20140;49.356;8.812;2024-02-15T13:03:01;0.57;;;0.43;;
33836;SDS011;20140;49.356;8.812;2024-02-15T13:05:28;3.95;;;0.98;;
33836;SDS011;20140;49.356;8.812;2024-02-15T13:07:55;2.13;;;0.60;;
33836;SDS011;20140;49.356;8.812;2024-02-15T13:10:27;1.58;;;0.50;;
33836;SDS011;20140;49.356;8.812;2024-02-15T13:12:57;4.60;;;0.70;;
33836;SDS011;20140;49.356;8.812;2024-02-15T13:15:23;2.17;;;0.50;;
33836;SDS011;20140;49.356;8.812;2024-02-15T13:17:52;1.00;;;0.43;;
33836;SDS011;20140;49.356;8.812;2024-02-15T13:20:21;0.95;;;0.40;;
33836;SDS011;20140;49.356;8.812;2024-02-15T13:23:07;2.15;;;0.52;;
33836;SDS011;20140;49.356;8.812;2024-02-15T13:25:37;2.20;;;0.70;;
33836;SDS011;20140;49.356;8.812;2024-02-15T13:28:04;2.57;;;0.60;;
33836;SDS011;20140;49.356;8.812;2024-02-15T13:30:30;2.88;;;0.70;;
33836;SDS011;20140;49.356;8.812;2024-02-15T13:32:56;4.40;;;2.72;;
33836;SDS011;20140;49.356;8.812;2024-02-15T13:35:22;1.77;;;0.60;;
33836;SDS011;20140;49.356;8.812;2024-02-15T13:37:51;3.08;;;0.50;;
33836;SDS011;20140;49.356;8.812;2024-02-15T13:40:22;2.83;;;1.30;;
33836;SDS011;20140;49.356;8.812;2024-02-15T13:42:56;0.40;;;0.32;;
33836;SDS011;20140;49.356;8.812;2024-02-15T13:45:24;1.20;;;0.80;;
33836;SDS011;20140;49.356;8.812;2024-02-15T13:48:02;2.10;;;0.70;;
33836;SDS011;20140;49.356;8.812;2024-02-15T13:50:30;1.90;;;1.00;;
33836;SDS011;20140;49.356;8.812;2024-02-15T13:52:56;0.85;;;0.30;;
33836;SDS011;20140;49.356;8.812;2024-02-15T13:55:23;1.05;;;0.40;;
33836;SDS011;20140;49.356;8.812;2024-02-15T13:57:50;2.05;;;0.50;;
33836;SDS011;20140;49.356;8.812;2024-02-15T14:00:17;1.10;;;0.60;;
33836;SDS011;20140;49.356;8.812;2024-02-15T14:02:47;0.98;;;0.30;;
33836;SDS011;20140;49.356;8.812;2024-02-15T14:05:13;1.13;;;0.30;;
33836;SDS011;20140;49.356;8.812;2024-02-15T14:07:39;3.60;;;1.10;;
33836;SDS011;20140;49.356;8.812;2024-02-15T14:10:05;1.80;;;0.65;;
33836;SDS011;20140;49.356;8.812;2024-02-15T14:12:32;3.25;;;0.50;;
33836;SDS011;20140;49.356;8.812;2024-02-15T14:14:57;1.35;;;0.30;;
33836;SDS011;20140;49.356;8.812;2024-02-15T14:17:23;1.53;;;0.33;;
33836;SDS011;20140;49.356;8.812;2024-02-15T14:19:49;1.45;;;0.50;;
33836;SDS011;20140;49.356;8.812;2024-02-15T14:22:14;1.67;;;0.80;;
33836;SDS011;20140;49.356;8.812;2024-02-15T14:24:43;1.20;;;0.40;;
33836;SDS011;20140;49.356;8.812;2024-02-15T14:27:09;1.38;;;0.47;;
33836;SDS011;20140;49.356;8.812;2024-02-15T14:29:35;1.90;;;0.40;;
33836;SDS011;20140;49.356;8.812;2024-02-15T14:32:05;0.68;;;0.30;;
33836;SDS011;20140;49.356;8.812;2024-02-15T14:34:50;2.58;;;0.38;;
33836;SDS011;20140;49.356;8.812;2024-02-15T14:37:16;1.50;;;0.60;;
33836;SDS011;20140;49.356;8.812;2024-02-15T14:39:42;0.70;;;0.50;;
33836;SDS011;20140;49.356;8.812;2024-02-15T14:42:07;1.50;;;0.40;;
33836;SDS011;20140;49.356;8.812;2024-02-15T14:44:33;1.20;;;1.07;;
33836;SDS011;20140;49.356;8.812;2024-02-15T14:46:59;1.10;;;0.52;;
33836;SDS011;20140;49.356;8.812;2024-02-15T14:49:24;2.13;;;0.70;;
33836;SDS011;20140;49.356;8.812;2024-02-15T14:51:50;4.00;;;0.90;;
33836;SDS011;20140;49.356;8.812;2024-02-15T14:54:16;2.38;;;1.30;;
33836;SDS011;20140;49.356;8.812;2024-02-15T14:56:43;3.37;;;0.50;;
33836;SDS011;20140;49.356;8.812;2024-02-15T14:59:10;0.47;;;0.40;;
33836;SDS011;20140;49.356;8.812;2024-02-15T15:01:36;0.95;;;0.43;;
33836;SDS011;20140;49.356;8.812;2024-02-15T15:04:02;1.58;;;0.40;;
33836;SDS011;20140;49.356;8.812;2024-02-15T15:06:30;0.90;;;0.50;;
33836;SDS011;20140;49.356;8.812;2024-02-15T15:09:15;1.42;;;0.45;;
33836;SDS011;20140;49.356;8.812;2024-02-15T15:11:59;0.43;;;0.28;;